createdAt,value
2023-02-28T00:01:55.457Z,100082.78
2023-02-28T00:05:04.559Z,100084.41
2023-02-28T00:08:08.404Z,100090.06
2023-02-28T00:11:14.493Z,100097.00
2023-02-28T00:14:18.410Z,100097.22
2023-02-28T00:17:23.799Z,100094.91
2023-02-28T00:20:27.916Z,100093.72
2023-02-28T00:23:32.142Z,100095.00
2023-02-28T00:26:36.083Z,100089.38
2023-02-28T00:29:40.396Z,100087.22
2023-02-28T00:32:46.092Z,100085.84
2023-02-28T00:35:50.015Z,100092.50
2023-02-28T00:38:53.926Z,100079.47
2023-02-28T00:41:57.729Z,100074.84
2023-02-28T00:45:01.526Z,100070.44
2023-02-28T00:48:07.370Z,100077.38
2023-02-28T00:51:11.395Z,100080.44
2023-02-28T00:54:15.470Z,100084.09
2023-02-28T00:57:19.224Z,100080.63
2023-02-28T01:00:23.233Z,100083.22
2023-02-28T01:03:29.175Z,100088.53
2023-02-28T01:06:33.206Z,100086.31
2023-02-28T01:09:36.997Z,100101.88
2023-02-28T01:12:41.848Z,100110.50
2023-02-28T01:15:51.521Z,100110.03
2023-02-28T01:18:57.179Z,100117.16
2023-02-28T01:22:03.952Z,100118.66
2023-02-28T01:25:08.394Z,100124.38
2023-02-28T01:28:12.106Z,100115.81
2023-02-28T01:31:16.260Z,100117.38
2023-02-28T01:34:21.491Z,100107.38
2023-02-28T01:37:25.184Z,100108.34
2023-02-28T01:40:28.805Z,100126.47
2023-02-28T01:43:34.229Z,100136.88
2023-02-28T01:46:38.856Z,100143.41
2023-02-28T01:49:45.301Z,100144.00
2023-02-28T01:52:51.456Z,100153.16
2023-02-28T01:55:56.504Z,100163.06
2023-02-28T01:59:00.322Z,100156.84
2023-02-28T02:02:04.969Z,100155.72
2023-02-28T02:05:13.372Z,100172.28
2023-02-28T02:08:21.396Z,100179.13
2023-02-28T02:11:30.987Z,100172.03
2023-02-28T02:14:46.159Z,100168.69
2023-02-28T02:17:54.379Z,100171.81
2023-02-28T02:21:30.546Z,100176.69
2023-02-28T02:25:02.226Z,100175.03
2023-02-28T02:28:47.758Z,100166.97
2023-02-28T02:32:18.409Z,100185.69
2023-02-28T02:35:30.071Z,100188.06
2023-02-28T02:38:40.802Z,100187.28
2023-02-28T02:41:51.820Z,100193.19
2023-02-28T02:45:01.010Z,100189.47
2023-02-28T02:48:08.730Z,100190.50
2023-02-28T02:51:17.312Z,100198.22
2023-02-28T02:54:25.328Z,100211.75
2023-02-28T02:57:34.770Z,100213.16
2023-02-28T03:00:43.702Z,100216.31
2023-02-28T03:03:48.265Z,100220.44
2023-02-28T03:06:55.984Z,100225.81
2023-02-28T03:10:00.471Z,100235.44
2023-02-28T03:13:20.491Z,100235.00
2023-02-28T03:16:46.743Z,100241.59
2023-02-28T03:19:58.087Z,100246.03
2023-02-28T03:23:18.960Z,100245.47
2023-02-28T03:26:29.060Z,100250.44
2023-02-28T03:29:38.000Z,100262.16
2023-02-28T03:32:45.497Z,100252.25
2023-02-28T03:35:55.569Z,100248.31
2023-02-28T03:39:04.460Z,100250.00
2023-02-28T03:42:11.984Z,100248.50
2023-02-28T03:45:20.686Z,100250.59
2023-02-28T03:48:30.130Z,100256.41
2023-02-28T03:51:36.113Z,100266.13
2023-02-28T03:54:46.378Z,100261.78
2023-02-28T03:57:59.302Z,100271.50
2023-02-28T04:01:09.889Z,100270.59
2023-02-28T04:04:14.762Z,100278.22
2023-02-28T04:07:19.306Z,100282.81
2023-02-28T04:10:24.620Z,100278.44
2023-02-28T04:13:28.419Z,100291.69
2023-02-28T04:16:35.424Z,100296.03
2023-02-28T04:19:39.816Z,100301.81
2023-02-28T04:22:43.551Z,100308.03
2023-02-28T04:25:48.675Z,100306.22
2023-02-28T04:28:52.424Z,100301.47
2023-02-28T04:31:59.135Z,100295.06
2023-02-28T04:35:03.802Z,100301.00
2023-02-28T04:38:07.314Z,100297.28
2023-02-28T04:41:12.643Z,100300.72
2023-02-28T04:44:17.367Z,100301.47
2023-02-28T04:47:21.122Z,100302.19
2023-02-28T04:50:24.865Z,100305.00
2023-02-28T04:53:29.752Z,100302.72
2023-02-28T04:56:34.962Z,100298.50
2023-02-28T04:59:38.577Z,100297.97
2023-02-28T05:02:42.401Z,100312.47
2023-02-28T05:05:46.051Z,100322.50
2023-02-28T05:08:49.913Z,100339.13
2023-02-28T05:11:55.069Z,100339.97
2023-02-28T05:14:58.862Z,100339.69
2023-02-28T05:18:02.403Z,100328.00
2023-02-28T05:21:06.191Z,100339.84
2023-02-28T05:24:12.955Z,100336.09
2023-02-28T05:27:18.149Z,100340.97
2023-02-28T05:30:22.220Z,100343.09
2023-02-28T05:33:26.030Z,100345.09
2023-02-28T05:36:29.850Z,100360.13
2023-02-28T05:39:33.504Z,100362.59
2023-02-28T05:42:38.645Z,100364.81
2023-02-28T05:45:42.381Z,100370.56
2023-02-28T05:48:50.260Z,100378.41
2023-02-28T05:51:53.903Z,100368.41
2023-02-28T05:54:57.604Z,100377.69
2023-02-28T05:58:02.952Z,100375.53
2023-02-28T06:01:23.993Z,100377.34
2023-02-28T06:04:31.980Z,100383.25
2023-02-28T06:07:36.024Z,100387.25
2023-02-28T06:10:39.819Z,100394.56
2023-02-28T06:13:45.075Z,100397.63
2023-02-28T06:16:50.089Z,100396.31
2023-02-28T06:19:54.131Z,100400.66
2023-02-28T06:22:59.737Z,100394.28
2023-02-28T06:26:03.607Z,100388.81
2023-02-28T06:29:08.897Z,100396.44
2023-02-28T06:32:12.805Z,100400.69
2023-02-28T06:35:16.870Z,100396.66
2023-02-28T06:38:21.384Z,100400.88
2023-02-28T06:41:26.657Z,100400.63
2023-02-28T06:44:36.495Z,100409.72
2023-02-28T06:47:42.231Z,100403.16
2023-02-28T06:50:46.344Z,100407.00
2023-02-28T06:53:50.170Z,100413.16
2023-02-28T06:56:55.468Z,100410.22
2023-02-28T07:00:01.388Z,100419.34
2023-02-28T07:03:05.184Z,100425.66
2023-02-28T07:06:09.380Z,100430.34
2023-02-28T07:09:13.206Z,100431.59
2023-02-28T07:12:17.070Z,100418.00
2023-02-28T07:15:22.325Z,100411.22
2023-02-28T07:18:26.341Z,100426.97
2023-02-28T07:21:30.541Z,100422.34
2023-02-28T07:24:34.706Z,100424.09
2023-02-28T07:27:38.604Z,100427.47
2023-02-28T07:30:43.950Z,100437.88
2023-02-28T07:33:47.880Z,100435.94
2023-02-28T07:36:54.695Z,100448.16
2023-02-28T07:39:58.725Z,100446.38
2023-02-28T07:43:02.812Z,100445.81
2023-02-28T07:46:10.845Z,100442.13
2023-02-28T07:49:14.670Z,100444.63
2023-02-28T07:52:18.542Z,100440.97
2023-02-28T07:55:22.419Z,100435.69
2023-02-28T07:58:27.143Z,100440.44
2023-02-28T08:01:32.800Z,100448.13
2023-02-28T08:04:36.908Z,100442.16
2023-02-28T08:07:40.721Z,100448.13
2023-02-28T08:10:45.066Z,100448.94
2023-02-28T08:13:48.902Z,100454.13
2023-02-28T08:16:54.023Z,100463.63
2023-02-28T08:19:57.742Z,100452.34
2023-02-28T08:23:01.578Z,100458.91
2023-02-28T08:26:06.477Z,100451.41
2023-02-28T08:29:10.281Z,100453.53
2023-02-28T08:32:28.932Z,100442.78
2023-02-28T08:35:33.719Z,100437.44
2023-02-28T08:38:37.649Z,100441.56
2023-02-28T08:41:42.482Z,100455.78
2023-02-28T08:44:46.250Z,100453.38
2023-02-28T08:47:53.728Z,100457.03
2023-02-28T08:51:06.758Z,100457.31
2023-02-28T08:54:13.773Z,100458.19
2023-02-28T08:57:17.574Z,100462.38
2023-02-28T09:00:22.783Z,100465.31
2023-02-28T09:03:28.901Z,100465.03
2023-02-28T09:06:32.893Z,100462.16
2023-02-28T09:09:36.978Z,100469.63
2023-02-28T09:12:40.983Z,100469.19
2023-02-28T09:15:44.799Z,100470.94
2023-02-28T09:18:50.668Z,100468.03
2023-02-28T09:21:54.450Z,100457.72
2023-02-28T09:24:58.313Z,100459.78
2023-02-28T09:28:02.417Z,100446.19
2023-02-28T09:31:06.442Z,100445.94
2023-02-28T09:34:11.792Z,100445.91
2023-02-28T09:37:15.642Z,100441.38
2023-02-28T09:40:21.170Z,100439.03
2023-02-28T09:43:28.045Z,100446.16
2023-02-28T09:46:36.054Z,100445.84
2023-02-28T09:49:45.066Z,100450.53
2023-02-28T09:52:51.492Z,100440.38
2023-02-28T09:56:00.198Z,100442.16
2023-02-28T09:59:12.489Z,100436.44
2023-02-28T10:02:39.273Z,100436.22
2023-02-28T10:05:54.631Z,100414.91
2023-02-28T10:09:02.787Z,100414.63
2023-02-28T10:12:08.261Z,100412.91
2023-02-28T10:15:16.948Z,100416.03
2023-02-28T10:18:27.125Z,100415.63
2023-02-28T10:21:37.852Z,100412.19
2023-02-28T10:24:44.796Z,100411.78
2023-02-28T10:27:48.554Z,100407.34
2023-02-28T10:30:55.117Z,100400.03
2023-02-28T10:33:59.094Z,100396.41
2023-02-28T10:37:08.593Z,100399.22
2023-02-28T10:40:30.647Z,100385.81
2023-02-28T10:43:34.478Z,100393.03
2023-02-28T10:46:38.438Z,100398.28
2023-02-28T10:49:50.737Z,100391.69
2023-02-28T10:52:56.918Z,100391.81
2023-02-28T10:56:03.300Z,100389.63
2023-02-28T10:59:30.603Z,100390.94
2023-02-28T11:02:36.890Z,100374.69
2023-02-28T11:05:42.565Z,100369.91
2023-02-28T11:08:50.474Z,100375.91
2023-02-28T11:11:54.953Z,100375.13
2023-02-28T11:15:02.503Z,100377.78
2023-02-28T11:18:24.067Z,100364.00
2023-02-28T11:21:31.893Z,100367.88
2023-02-28T11:24:44.613Z,100374.59
2023-02-28T11:27:51.300Z,100375.19
2023-02-28T11:31:08.345Z,100375.31
2023-02-28T11:34:28.686Z,100369.34
2023-02-28T11:37:33.921Z,100372.22
2023-02-28T11:40:49.272Z,100370.25
2023-02-28T11:44:08.288Z,100368.66
2023-02-28T11:47:18.604Z,100366.38
2023-02-28T11:50:33.793Z,100363.22
2023-02-28T11:53:52.287Z,100357.41
2023-02-28T11:57:02.624Z,100359.25
2023-02-28T12:00:21.924Z,100356.97
2023-02-28T12:03:33.728Z,100360.69
2023-02-28T12:06:45.939Z,100353.00
2023-02-28T12:09:59.917Z,100352.16
2023-02-28T12:13:15.801Z,100341.59
2023-02-28T12:16:38.869Z,100351.50
2023-02-28T12:19:50.112Z,100350.63
2023-02-28T12:23:01.505Z,100344.03
2023-02-28T12:26:16.448Z,100352.72
2023-02-28T12:29:25.302Z,100350.91
2023-02-28T12:32:34.757Z,100345.94
2023-02-28T12:35:47.034Z,100341.91
2023-02-28T12:38:58.909Z,100340.31
2023-02-28T12:42:08.936Z,100335.59
2023-02-28T12:45:21.459Z,100332.69
2023-02-28T12:48:32.138Z,100333.75
2023-02-28T12:51:38.257Z,100320.63
2023-02-28T12:54:52.974Z,100325.44
2023-02-28T12:58:05.909Z,100334.38
2023-02-28T13:01:45.709Z,100336.00
2023-02-28T13:05:26.192Z,100338.22
2023-02-28T13:09:04.302Z,100334.41
2023-02-28T13:12:16.715Z,100327.53
2023-02-28T13:15:25.410Z,100324.25
2023-02-28T13:18:38.672Z,100325.75
2023-02-28T13:21:48.402Z,100329.44
2023-02-28T13:24:54.503Z,100322.72
2023-02-28T13:28:02.135Z,100326.34
2023-02-28T13:31:07.991Z,100325.84
2023-02-28T13:34:18.180Z,100324.53
2023-02-28T13:37:44.232Z,100321.44
2023-02-28T13:40:48.054Z,100319.47
2023-02-28T13:44:13.984Z,100318.53
2023-02-28T13:47:32.106Z,100314.16
2023-02-28T13:50:40.153Z,100322.31
2023-02-28T13:54:02.849Z,100318.19
2023-02-28T13:57:20.419Z,100313.63
2023-02-28T14:00:34.600Z,100313.28
2023-02-28T14:03:59.041Z,100322.97
2023-02-28T14:07:05.611Z,100320.53
2023-02-28T14:10:22.389Z,100323.75
2023-02-28T14:13:47.957Z,100323.88
2023-02-28T14:16:52.233Z,100335.50
2023-02-28T14:19:56.166Z,100319.81
2023-02-28T14:23:10.317Z,100334.16
2023-02-28T14:26:29.570Z,100331.75
2023-02-28T14:29:50.704Z,100338.13
2023-02-28T14:33:08.082Z,100332.63
2023-02-28T14:36:22.483Z,100342.22
2023-02-28T14:39:28.767Z,100338.84
2023-02-28T14:42:34.301Z,100328.53
2023-02-28T14:45:39.727Z,100330.97
2023-02-28T14:48:43.549Z,100323.78
2023-02-28T14:51:48.528Z,100331.25
2023-02-28T14:54:57.162Z,100334.59
2023-02-28T14:58:04.546Z,100338.84
2023-02-28T15:01:08.525Z,100335.75
2023-02-28T15:04:30.018Z,100347.84
2023-02-28T15:07:34.099Z,100348.38
2023-02-28T15:10:41.472Z,100357.03
2023-02-28T15:13:48.061Z,100352.13
2023-02-28T15:16:58.779Z,100353.00
2023-02-28T15:20:03.496Z,100361.13
2023-02-28T15:23:07.406Z,100368.22
2023-02-28T15:26:16.770Z,100362.06
2023-02-28T15:29:23.661Z,100369.81
2023-02-28T15:32:31.261Z,100370.66
2023-02-28T15:35:36.102Z,100370.28
2023-02-28T15:38:39.973Z,100371.81
2023-02-28T15:41:45.256Z,100365.56
2023-02-28T15:44:49.515Z,100368.25
2023-02-28T15:47:54.661Z,100359.16
2023-02-28T15:51:03.489Z,100370.41
2023-02-28T15:54:09.994Z,100365.94
2023-02-28T15:57:18.130Z,100381.53
2023-02-28T16:00:25.264Z,100392.78
2023-02-28T16:03:37.546Z,100389.25
2023-02-28T16:06:43.900Z,100391.72
2023-02-28T16:09:48.389Z,100389.69
2023-02-28T16:12:55.278Z,100382.63
2023-02-28T16:16:00.718Z,100391.41
2023-02-28T16:19:04.497Z,100387.25
2023-02-28T16:22:08.335Z,100387.59
2023-02-28T16:25:14.598Z,100390.69
2023-02-28T16:28:23.525Z,100395.50
2023-02-28T16:31:27.686Z,100396.88
2023-02-28T16:34:31.562Z,100401.44
2023-02-28T16:37:35.398Z,100399.53
2023-02-28T16:40:39.291Z,100408.19
2023-02-28T16:43:45.596Z,100408.28
2023-02-28T16:46:49.414Z,100409.13
2023-02-28T16:49:53.203Z,100407.66
2023-02-28T16:52:57.162Z,100405.09
2023-02-28T16:56:03.134Z,100414.75
2023-02-28T16:59:08.343Z,100418.50
2023-02-28T17:02:15.460Z,100416.00
2023-02-28T17:05:20.730Z,100421.19
2023-02-28T17:08:24.474Z,100425.25
2023-02-28T17:11:29.227Z,100421.22
2023-02-28T17:14:34.594Z,100425.59
2023-02-28T17:17:38.297Z,100421.22
2023-02-28T17:20:43.469Z,100423.94
2023-02-28T17:23:47.299Z,100414.69
2023-02-28T17:26:51.186Z,100421.06
2023-02-28T17:29:56.541Z,100421.38
2023-02-28T17:33:00.434Z,100425.75
2023-02-28T17:36:04.406Z,100430.97
2023-02-28T17:39:15.031Z,100437.38
2023-02-28T17:42:20.309Z,100432.25
2023-02-28T17:45:26.030Z,100433.31
2023-02-28T17:48:31.935Z,100432.41
2023-02-28T17:51:35.760Z,100438.97
2023-02-28T17:54:39.571Z,100436.28
2023-02-28T17:57:44.190Z,100429.00
2023-02-28T18:00:54.937Z,100429.91
2023-02-28T18:03:58.847Z,100436.44
2023-02-28T18:07:02.940Z,100430.22
2023-02-28T18:10:08.253Z,100429.13
2023-02-28T18:13:12.770Z,100425.44
2023-02-28T18:16:19.192Z,100437.00
2023-02-28T18:19:23.386Z,100428.25
2023-02-28T18:22:27.160Z,100433.06
2023-02-28T18:25:31.362Z,100428.06
2023-02-28T18:28:35.259Z,100434.81
2023-02-28T18:31:40.408Z,100426.22
2023-02-28T18:34:44.225Z,100434.25
2023-02-28T18:37:48.044Z,100429.28
2023-02-28T18:40:57.241Z,100429.66
2023-02-28T18:44:10.410Z,100431.97
2023-02-28T18:47:20.004Z,100431.28
2023-02-28T18:50:23.846Z,100432.63
2023-02-28T18:53:27.577Z,100436.53
2023-02-28T18:56:31.712Z,100427.16
2023-02-28T18:59:35.614Z,100427.84
2023-02-28T19:02:40.892Z,100430.22
2023-02-28T19:05:44.769Z,100420.31
2023-02-28T19:08:49.534Z,100428.91
2023-02-28T19:11:53.285Z,100420.63
2023-02-28T19:14:56.998Z,100424.03
2023-02-28T19:18:02.440Z,100416.84
2023-02-28T19:21:08.217Z,100416.19
2023-02-28T19:24:12.498Z,100429.97
2023-02-28T19:27:17.510Z,100416.16
2023-02-28T19:30:21.605Z,100420.16
2023-02-28T19:33:26.880Z,100419.44
2023-02-28T19:36:30.702Z,100416.28
2023-02-28T19:39:41.241Z,100422.72
2023-02-28T19:42:45.147Z,100422.63
2023-02-28T19:45:49.342Z,100425.59
2023-02-28T19:48:56.508Z,100430.69
2023-02-28T19:52:00.288Z,100421.53
2023-02-28T19:55:04.120Z,100424.91
2023-02-28T19:58:07.912Z,100417.41
2023-02-28T20:01:13.768Z,100423.81
2023-02-28T20:04:19.004Z,100412.84
2023-02-28T20:07:22.865Z,100420.00
2023-02-28T20:10:26.693Z,100418.81
2023-02-28T20:13:30.881Z,100419.78
2023-02-28T20:16:34.857Z,100414.94
2023-02-28T20:19:40.202Z,100414.56
2023-02-28T20:22:44.050Z,100429.75
2023-02-28T20:25:47.886Z,100426.44
2023-02-28T20:28:51.646Z,100423.88
2023-02-28T20:31:55.782Z,100422.19
2023-02-28T20:35:01.053Z,100423.34
2023-02-28T20:38:04.830Z,100418.53
2023-02-28T20:41:09.120Z,100427.81
2023-02-28T20:44:14.591Z,100427.47
2023-02-28T20:47:18.414Z,100419.84
2023-02-28T20:50:23.614Z,100420.94
2023-02-28T20:53:28.949Z,100421.56
2023-02-28T20:56:32.806Z,100420.78
2023-02-28T20:59:36.689Z,100415.44
2023-02-28T21:02:40.575Z,100418.56
2023-02-28T21:05:45.888Z,100428.44
2023-02-28T21:08:50.371Z,100421.47
2023-02-28T21:11:55.342Z,100426.88
2023-02-28T21:14:59.048Z,100431.25
2023-02-28T21:18:02.815Z,100434.25
2023-02-28T21:21:10.373Z,100436.44
2023-02-28T21:24:15.480Z,100444.03
2023-02-28T21:27:19.275Z,100428.31
2023-02-28T21:30:23.253Z,100436.34
2023-02-28T21:33:27.400Z,100427.22
2023-02-28T21:36:35.220Z,100431.44
2023-02-28T21:39:38.951Z,100418.56
2023-02-28T21:42:42.830Z,100431.53
2023-02-28T21:45:46.611Z,100420.91
2023-02-28T21:48:51.161Z,100419.91
2023-02-28T21:51:56.448Z,100426.38
2023-02-28T21:55:00.130Z,100426.47
2023-02-28T21:58:04.164Z,100421.34
2023-02-28T22:01:09.571Z,100430.53
2023-02-28T22:04:21.355Z,100428.84
2023-02-28T22:07:26.688Z,100442.69
2023-02-28T22:10:30.626Z,100445.09
2023-02-28T22:13:35.077Z,100445.59
2023-02-28T22:16:50.837Z,100445.63
2023-02-28T22:19:55.908Z,100438.84
2023-02-28T22:23:01.380Z,100434.22
2023-02-28T22:26:07.275Z,100436.22
2023-02-28T22:29:11.033Z,100428.75
2023-02-28T22:32:15.562Z,100431.31
2023-02-28T22:35:20.622Z,100428.84
2023-02-28T22:38:27.553Z,100417.53
2023-02-28T22:41:31.940Z,100424.59
2023-02-28T22:44:35.671Z,100432.47
2023-02-28T22:47:39.431Z,100425.09
2023-02-28T22:50:43.345Z,100417.31
2023-02-28T22:53:50.047Z,100422.09
2023-02-28T22:56:53.942Z,100428.09
2023-02-28T22:59:57.673Z,100427.00
2023-02-28T23:03:01.531Z,100422.22
2023-02-28T23:06:14.448Z,100421.25
2023-02-28T23:09:21.781Z,100419.69
2023-02-28T23:12:25.694Z,100421.28
2023-02-28T23:15:29.497Z,100414.00
2023-02-28T23:18:33.304Z,100414.00
2023-02-28T23:21:37.530Z,100412.75
2023-02-28T23:24:42.745Z,100403.31
2023-02-28T23:27:46.649Z,100395.97
2023-02-28T23:30:50.444Z,100399.94
2023-02-28T23:33:54.383Z,100385.94
2023-02-28T23:37:00.148Z,100380.28
2023-02-28T23:40:08.396Z,100363.09
2023-02-28T23:43:12.487Z,100372.25
2023-02-28T23:46:17.889Z,100366.94
2023-02-28T23:49:22.226Z,100359.56
2023-02-28T23:52:25.907Z,100354.13
2023-02-28T23:55:31.110Z,100360.50
2023-02-28T23:58:35.966Z,100350.38
